Time;durP1;ratioP1;P1;durP2;ratioP2;P2;SDS_P1;SDS_P2;PMS_P1;PMS_P2;Temp;Humidity;BMP_temperature;BMP_pressure;BME280_temperature;BME280_humidity;BME280_pressure;Samples;Min_cycle;Max_cycle;Signal;HPM_P1;HPM_P2
2022/04/24 00:00:01;;;;;;;36.45;16.30;;;12.70;81.00;;;;;;5070306;28;20036;-57
2022/04/24 00:02:27;;;;;;;37.65;15.27;;;12.80;81.10;;;;;;5070705;28;20094;-42
2022/04/24 00:04:53;;;;;;;36.22;15.60;;;12.80;81.10;;;;;;5070236;28;20024;-47
2022/04/24 00:07:19;;;;;;;33.55;16.00;;;12.70;80.50;;;;;;5068449;28;20364;-45
2022/04/24 00:09:45;;;;;;;33.53;15.45;;;12.70;80.60;;;;;;5070436;28;20514;-48
2022/04/24 00:12:16;;;;;;;36.65;15.02;;;12.70;80.30;;;;;;5070015;28;20033;-50
2022/04/24 00:14:46;;;;;;;33.03;15.73;;;12.70;80.60;;;;;;5070480;28;20091;-49
2022/04/24 00:17:15;;;;;;;34.03;15.30;;;12.60;81.00;;;;;;5069746;28;20450;-48
2022/04/24 00:19:40;;;;;;;31.98;14.75;;;12.50;81.20;;;;;;5073326;28;20028;-48
2022/04/24 00:22:06;;;;;;;37.70;16.05;;;12.50;81.00;;;;;;5073771;28;20479;-52
2022/04/24 00:24:32;;;;;;;35.95;14.98;;;12.50;81.20;;;;;;5073940;28;20085;-58
2022/04/24 00:26:59;;;;;;;39.15;15.68;;;12.40;81.40;;;;;;5073761;28;20112;-46
2022/04/24 00:29:25;;;;;;;36.00;15.63;;;12.40;81.70;;;;;;5074055;28;20033;-50
2022/04/24 00:31:50;;;;;;;37.53;15.15;;;12.30;82.10;;;;;;5073475;28;20119;-55
2022/04/24 00:34:16;;;;;;;37.08;15.48;;;12.20;82.20;;;;;;5073807;28;20044;-51
2022/04/24 00:36:44;;;;;;;33.63;15.25;;;12.10;82.30;;;;;;5073929;28;20570;-50
2022/04/24 00:39:09;;;;;;;38.42;14.50;;;12.10;82.90;;;;;;5073761;28;20146;-41
2022/04/24 00:41:42;;;;;;;39.75;15.43;;;12.10;83.00;;;;;;5073334;28;20115;-43
2022/04/24 00:44:08;;;;;;;31.25;15.05;;;12.00;83.10;;;;;;5073638;28;20486;-51
2022/04/24 00:46:45;;;;;;;33.33;14.35;;;12.00;83.40;;;;;;5073666;28;20033;-49
2022/04/24 00:49:12;;;;;;;32.05;14.93;;;12.00;83.00;;;;;;5073495;28;20050;-48
2022/04/24 00:51:43;;;;;;;37.28;16.33;;;11.90;83.40;;;;;;5073207;28;20036;-51
2022/04/24 00:54:10;;;;;;;38.15;15.07;;;11.90;83.50;;;;;;5073423;28;20077;-44
2022/04/24 00:56:37;;;;;;;35.03;15.10;;;11.90;83.70;;;;;;5072137;28;20067;-52
2022/04/24 00:59:05;;;;;;;40.65;15.70;;;11.90;83.90;;;;;;5073501;28;20099;-46
2022/04/24 01:01:33;;;;;;;37.33;15.65;;;11.80;84.10;;;;;;5071659;28;20020;-44
2022/04/24 01:04:01;;;;;;;38.55;15.85;;;11.80;84.20;;;;;;5073242;28;20099;-51
2022/04/24 01:06:30;;;;;;;35.75;16.20;;;11.70;84.30;;;;;;5073201;28;20120;-54
2022/04/24 01:09:06;;;;;;;35.38;15.13;;;11.70;84.30;;;;;;5073067;28;20491;-48
2022/04/24 01:11:32;;;;;;;33.75;14.95;;;11.70;84.40;;;;;;5072822;28;20033;-45
2022/04/24 01:13:58;;;;;;;30.80;15.10;;;11.60;84.70;;;;;;5071763;28;20090;-52
2022/04/24 01:16:23;;;;;;;33.83;15.63;;;11.60;84.90;;;;;;5072908;28;20048;-57
2022/04/24 01:18:49;;;;;;;43.53;15.27;;;11.60;85.10;;;;;;5072949;28;20451;-54
2022/04/24 01:21:14;;;;;;;37.50;15.93;;;11.60;85.10;;;;;;5072667;28;20120;-51
2022/04/24 01:23:40;;;;;;;36.75;15.88;;;11.50;85.20;;;;;;5073097;28;20099;-46
2022/04/24 01:26:06;;;;;;;31.73;15.98;;;11.50;85.40;;;;;;5072978;28;20551;-57
2022/04/24 01:28:32;;;;;;;29.55;15.45;;;11.50;85.50;;;;;;5072794;28;20396;-46
2022/04/24 01:30:57;;;;;;;40.65;15.52;;;11.50;85.50;;;;;;5071397;28;20051;-50
2022/04/24 01:33:23;;;;;;;37.45;15.10;;;11.40;85.60;;;;;;5072802;28;20425;-52
2022/04/24 01:35:49;;;;;;;39.95;16.05;;;11.40;85.40;;;;;;5072467;28;20017;-56
2022/04/24 01:38:15;;;;;;;33.33;15.27;;;11.50;85.50;;;;;;5072656;28;20024;-53
2022/04/24 01:40:41;;;;;;;34.13;15.68;;;11.50;85.40;;;;;;5072247;28;20103;-54
2022/04/24 01:43:07;;;;;;;33.80;15.43;;;11.50;85.50;;;;;;5072470;28;20028;-53
2022/04/24 01:45:32;;;;;;;31.25;15.68;;;11.40;85.60;;;;;;5072478;28;20094;-52
2022/04/24 01:47:58;;;;;;;30.50;15.30;;;11.40;85.60;;;;;;5072383;28;20021;-55
2022/04/24 01:50:23;;;;;;;39.92;15.30;;;11.40;85.40;;;;;;5071922;28;20042;-47
2022/04/24 01:52:49;;;;;;;37.72;15.45;;;11.40;85.40;;;;;;5072225;28;20029;-54
2022/04/24 01:55:15;;;;;;;30.88;14.70;;;11.40;85.40;;;;;;5072164;28;20033;-47
2022/04/24 01:57:40;;;;;;;35.38;16.05;;;11.40;85.50;;;;;;5072196;28;20070;-44
2022/04/24 02:00:07;;;;;;;39.08;15.00;;;11.40;86.00;;;;;;5072020;28;20032;-46
2022/04/24 02:02:32;;;;;;;36.17;15.10;;;11.40;85.30;;;;;;5070789;28;20038;-47
2022/04/24 02:04:58;;;;;;;36.17;15.25;;;11.40;85.30;;;;;;5072017;28;20032;-49
2022/04/24 02:07:23;;;;;;;30.85;14.15;;;11.40;85.30;;;;;;5071967;28;20024;-47
2022/04/24 02:09:49;;;;;;;29.60;14.57;;;11.40;85.20;;;;;;5072085;28;20044;-41
2022/04/24 02:12:15;;;;;;;32.28;14.45;;;11.40;86.00;;;;;;5071800;28;20115;-46
2022/04/24 02:14:40;;;;;;;32.00;14.85;;;11.30;85.40;;;;;;5070246;28;20437;-50
2022/04/24 02:17:06;;;;;;;35.28;14.05;;;11.30;85.20;;;;;;5071058;28;20049;-48
2022/04/24 02:19:31;;;;;;;35.55;13.93;;;11.30;85.20;;;;;;5071689;28;20028;-50
2022/04/24 02:21:57;;;;;;;33.35;13.73;;;11.30;85.30;;;;;;5071729;28;20020;-47
2022/04/24 02:24:23;;;;;;;32.35;14.27;;;11.30;85.20;;;;;;5071953;28;20020;-45
2022/04/24 02:26:48;;;;;;;44.67;14.90;;;11.30;85.30;;;;;;5071457;28;20372;-49
2022/04/24 02:29:14;;;;;;;36.22;14.38;;;11.30;85.20;;;;;;5071729;28;20024;-52
2022/04/24 02:31:40;;;;;;;36.95;14.50;;;11.30;85.30;;;;;;5071557;28;20037;-45
2022/04/24 02:34:06;;;;;;;32.17;13.20;;;11.20;85.30;;;;;;5071428;28;20029;-50
2022/04/24 02:36:32;;;;;;;35.92;13.65;;;11.20;85.40;;;;;;5071543;28;20115;-40
2022/04/24 02:38:57;;;;;;;33.58;13.35;;;11.10;85.50;;;;;;5071401;28;20091;-44
2022/04/24 02:41:26;;;;;;;35.30;14.30;;;11.20;86.10;;;;;;5071120;28;20063;-46
2022/04/24 02:43:51;;;;;;;34.75;14.50;;;11.10;85.40;;;;;;5071361;28;20028;-44
2022/04/24 02:46:17;;;;;;;31.38;13.77;;;11.10;85.50;;;;;;5071431;28;20368;-44
2022/04/24 02:48:42;;;;;;;30.38;13.02;;;11.10;85.70;;;;;;5070753;28;20056;-44
2022/04/24 02:51:08;;;;;;;35.95;13.75;;;11.00;85.70;;;;;;5071366;28;20048;-48
2022/04/24 02:53:34;;;;;;;34.30;12.82;;;11.00;85.90;;;;;;5071271;28;20394;-43
2022/04/24 02:55:59;;;;;;;32.80;12.27;;;11.00;86.00;;;;;;5071269;28;20023;-44
2022/04/24 02:58:26;;;;;;;35.17;13.18;;;11.00;85.90;;;;;;5071028;28;20047;-41
2022/04/24 03:00:54;;;;;;;28.85;11.95;;;10.90;86.10;;;;;;5071270;28;20033;-44
2022/04/24 03:03:20;;;;;;;30.80;12.95;;;10.80;86.20;;;;;;5070964;28;20040;-41
2022/04/24 03:05:47;;;;;;;37.80;13.18;;;10.80;86.40;;;;;;5069998;28;20036;-44
2022/04/24 03:08:13;;;;;;;30.95;12.45;;;10.70;86.70;;;;;;5071440;28;20028;-53
2022/04/24 03:10:38;;;;;;;31.42;12.73;;;10.70;86.70;;;;;;5069475;28;20041;-57
2022/04/24 03:13:04;;;;;;;25.70;12.35;;;10.70;87.00;;;;;;5070998;28;20122;-50
2022/04/24 03:15:30;;;;;;;35.08;13.98;;;10.60;87.40;;;;;;5071155;28;20383;-49
2022/04/24 03:17:55;;;;;;;26.45;13.30;;;10.50;87.50;;;;;;5070746;28;20408;-49
2022/04/24 03:20:25;;;;;;;37.63;13.20;;;10.50;87.60;;;;;;5071314;28;20020;-56
2022/04/24 03:22:51;;;;;;;32.53;12.95;;;10.50;87.60;;;;;;5071097;28;20071;-47
2022/04/24 03:25:17;;;;;;;34.35;12.52;;;10.50;87.60;;;;;;5070726;28;20068;-48
2022/04/24 03:27:42;;;;;;;29.83;13.88;;;10.40;87.80;;;;;;5070896;28;20114;-47
2022/04/24 03:30:09;;;;;;;26.08;12.85;;;10.40;88.20;;;;;;5070922;28;20099;-47
2022/04/24 03:32:36;;;;;;;31.05;13.15;;;10.40;88.20;;;;;;5070747;28;20048;-46
2022/04/24 03:35:03;;;;;;;32.10;13.27;;;10.30;88.20;;;;;;5070958;28;20031;-46
2022/04/24 03:37:29;;;;;;;35.42;13.77;;;10.30;88.40;;;;;;5071000;28;20032;-52
2022/04/24 03:39:56;;;;;;;30.08;13.25;;;10.30;88.50;;;;;;5070795;28;20086;-50
2022/04/24 03:42:22;;;;;;;35.03;14.35;;;10.20;88.80;;;;;;5070893;28;20051;-55
2022/04/24 03:44:48;;;;;;;35.70;13.23;;;10.20;89.00;;;;;;5070784;28;20470;-48
2022/04/24 03:47:14;;;;;;;35.20;14.20;;;10.10;89.10;;;;;;5070800;28;20107;-48
2022/04/24 03:49:40;;;;;;;29.95;13.15;;;10.10;89.20;;;;;;5070980;28;20091;-46
2022/04/24 03:52:06;;;;;;;30.90;13.73;;;10.10;89.50;;;;;;5070857;28;20071;-57
2022/04/24 03:54:32;;;;;;;31.13;13.48;;;10.10;89.40;;;;;;5072907;28;20048;-44
2022/04/24 03:56:58;;;;;;;30.35;14.00;;;10.00;89.70;;;;;;5074329;28;20457;-53
2022/04/24 03:59:23;;;;;;;33.10;13.77;;;10.00;89.90;;;;;;5073851;28;20034;-51
2022/04/24 04:01:49;;;;;;;29.77;13.93;;;10.00;90.00;;;;;;5074362;28;20035;-47
2022/04/24 04:04:15;;;;;;;27.52;13.45;;;9.90;90.00;;;;;;5074126;28;20340;-50
2022/04/24 04:06:41;;;;;;;38.03;14.00;;;9.90;90.10;;;;;;5074545;28;20055;-49
2022/04/24 04:09:07;;;;;;;39.22;14.82;;;9.90;90.10;;;;;;5074317;28;20421;-43
2022/04/24 04:11:32;;;;;;;32.17;13.55;;;9.90;90.20;;;;;;5073916;28;20032;-48
2022/04/24 04:13:58;;;;;;;33.83;15.57;;;9.90;90.30;;;;;;5074004;28;20032;-55
2022/04/24 04:16:24;;;;;;;33.45;14.43;;;9.90;90.30;;;;;;5073689;28;20028;-49
2022/04/24 04:18:49;;;;;;;33.35;15.85;;;9.90;90.40;;;;;;5074285;28;20024;-48
2022/04/24 04:21:15;;;;;;;31.77;14.50;;;9.80;90.40;;;;;;5073933;28;20089;-44
2022/04/24 04:23:41;;;;;;;30.67;13.68;;;9.90;90.40;;;;;;5074280;28;20021;-54
2022/04/24 04:26:06;;;;;;;36.05;16.10;;;9.80;90.70;;;;;;5074044;28;20487;-50
2022/04/24 04:28:32;;;;;;;33.97;14.50;;;9.80;90.50;;;;;;5073964;28;20020;-50
2022/04/24 04:30:58;;;;;;;38.20;15.02;;;9.80;90.50;;;;;;5073776;28;20040;-52
2022/04/24 04:33:23;;;;;;;36.70;15.38;;;9.80;90.60;;;;;;5073930;28;20063;-46
2022/04/24 04:35:49;;;;;;;31.27;15.25;;;9.80;90.60;;;;;;5073797;28;20111;-49
2022/04/24 04:38:15;;;;;;;38.10;15.77;;;9.80;90.60;;;;;;5073765;28;20039;-48
2022/04/24 04:40:40;;;;;;;31.92;14.77;;;9.80;90.50;;;;;;5073730;28;20029;-53
2022/04/24 04:43:06;;;;;;;32.55;14.57;;;9.80;90.70;;;;;;5073791;28;20037;-45
2022/04/24 04:45:32;;;;;;;35.28;14.98;;;9.80;90.70;;;;;;5073170;28;20082;-58
2022/04/24 04:47:58;;;;;;;32.40;15.32;;;9.80;90.70;;;;;;5073182;28;20028;-46
2022/04/24 04:50:24;;;;;;;33.88;15.23;;;9.80;90.70;;;;;;5073026;28;20024;-48
2022/04/24 04:52:49;;;;;;;38.25;15.45;;;9.80;90.70;;;;;;5073553;28;20029;-50
2022/04/24 04:55:15;;;;;;;35.47;16.00;;;9.80;90.70;;;;;;5073036;28;20032;-44
2022/04/24 04:57:41;;;;;;;36.63;16.38;;;9.80;90.80;;;;;;5073380;28;20032;-50
2022/04/24 05:00:08;;;;;;;33.47;14.82;;;9.80;90.80;;;;;;5073238;28;20068;-45
2022/04/24 05:02:40;;;;;;;33.00;15.02;;;9.80;90.80;;;;;;5073173;28;20043;-42
2022/04/24 05:05:07;;;;;;;33.47;15.75;;;9.80;90.80;;;;;;5072708;28;20024;-43
2022/04/24 05:07:34;;;;;;;36.15;15.75;;;9.80;90.80;;;;;;5073182;28;20400;-43
2022/04/24 05:09:59;;;;;;;39.30;15.90;;;9.90;90.70;;;;;;5073141;28;20461;-50
2022/04/24 05:12:30;;;;;;;37.88;16.50;;;9.90;90.70;;;;;;5072913;28;20160;-47
2022/04/24 05:15:04;;;;;;;30.77;15.63;;;9.90;90.70;;;;;;5072918;28;20024;-53
2022/04/24 05:17:29;;;;;;;32.90;16.25;;;9.90;90.60;;;;;;5069979;28;20048;-55
2022/04/24 05:19:55;;;;;;;41.95;17.30;;;9.90;90.50;;;;;;5073132;28;20514;-54
2022/04/24 05:22:22;;;;;;;39.10;16.63;;;10.00;90.50;;;;;;5072985;28;20032;-51
2022/04/24 05:24:48;;;;;;;32.55;16.52;;;10.00;90.40;;;;;;5072929;28;20055;-49
2022/04/24 05:27:14;;;;;;;28.20;16.23;;;10.00;90.40;;;;;;5072338;28;20125;-53
2022/04/24 05:29:40;;;;;;;38.30;16.60;;;10.10;90.40;;;;;;5072508;28;20100;-53
2022/04/24 05:32:06;;;;;;;34.22;16.63;;;10.10;90.30;;;;;;5072662;28;20131;-44
2022/04/24 05:34:32;;;;;;;35.78;17.45;;;10.10;90.30;;;;;;5072713;28;20020;-55
2022/04/24 05:36:57;;;;;;;34.15;17.52;;;10.10;90.20;;;;;;5072504;28;20027;-49
2022/04/24 05:39:23;;;;;;;34.00;16.02;;;10.20;90.20;;;;;;5072557;28;20025;-49
2022/04/24 05:41:48;;;;;;;36.42;16.58;;;10.20;90.10;;;;;;5072405;28;20021;-44
2022/04/24 05:44:14;;;;;;;31.13;17.80;;;10.30;90.10;;;;;;5071733;28;20039;-51
2022/04/24 05:46:40;;;;;;;33.75;17.50;;;10.30;89.80;;;;;;5071447;28;20067;-45
2022/04/24 05:49:06;;;;;;;36.88;17.83;;;10.40;89.60;;;;;;5070588;28;20032;-46
2022/04/24 05:51:33;;;;;;;34.95;17.40;;;10.40;89.30;;;;;;5071249;28;20039;-43
2022/04/24 05:53:59;;;;;;;36.42;17.15;;;10.50;89.00;;;;;;5070433;28;20032;-46
2022/04/24 05:56:25;;;;;;;41.80;19.00;;;10.60;89.00;;;;;;5070235;28;20056;-51
2022/04/24 05:58:51;;;;;;;33.45;17.58;;;10.60;88.40;;;;;;5071182;28;20048;-46
2022/04/24 06:01:17;;;;;;;35.25;17.75;;;10.70;88.40;;;;;;5071304;28;20470;-49
2022/04/24 06:03:42;;;;;;;33.63;17.17;;;10.80;88.10;;;;;;5070906;28;20024;-45
2022/04/24 06:06:09;;;;;;;35.10;17.55;;;10.90;87.70;;;;;;5071910;28;20111;-50
2022/04/24 06:08:35;;;;;;;36.40;18.88;;;10.80;87.50;;;;;;5072111;28;20056;-45
2022/04/24 06:11:00;;;;;;;43.35;18.80;;;10.80;87.50;;;;;;5071656;28;20064;-48
2022/04/24 06:13:26;;;;;;;32.53;17.20;;;10.80;87.20;;;;;;5071893;28;20147;-48
2022/04/24 06:15:55;;;;;;;35.60;18.02;;;10.80;87.70;;;;;;5070988;28;20024;-49
2022/04/24 06:18:21;;;;;;;34.05;18.15;;;10.90;87.80;;;;;;5071474;28;20056;-54
2022/04/24 06:20:47;;;;;;;30.17;17.45;;;10.80;87.60;;;;;;5071828;28;20360;-49
2022/04/24 06:23:12;;;;;;;35.40;18.02;;;10.90;87.70;;;;;;5071201;28;20021;-50
2022/04/24 06:25:39;;;;;;;34.70;17.70;;;10.90;87.70;;;;;;5070256;28;20383;-50
2022/04/24 06:28:05;;;;;;;35.33;17.75;;;10.90;87.90;;;;;;5071639;28;20028;-44
2022/04/24 06:30:32;;;;;;;36.00;18.35;;;10.90;87.80;;;;;;5070379;28;21102;-51
2022/04/24 06:33:00;;;;;;;32.42;18.73;;;11.00;87.50;;;;;;5065886;28;20028;-52
2022/04/24 06:35:26;;;;;;;34.58;18.92;;;11.30;87.50;;;;;;5051623;28;20017;-51
2022/04/24 06:37:55;;;;;;;29.45;16.10;;;12.20;84.30;;;;;;5061564;28;20028;-43
2022/04/24 06:40:25;;;;;;;28.95;16.38;;;13.40;79.90;;;;;;5071427;28;20027;-50
2022/04/24 06:43:01;;;;;;;24.83;14.82;;;14.50;74.10;;;;;;5071195;28;20088;-51
2022/04/24 06:45:39;;;;;;;27.20;15.05;;;15.70;70.30;;;;;;5071174;28;20029;-48
2022/04/24 06:48:10;;;;;;;27.83;13.55;;;16.50;68.10;;;;;;5071538;28;20035;-43
2022/04/24 06:50:39;;;;;;;22.65;13.15;;;17.40;66.20;;;;;;5071273;28;20079;-51
2022/04/24 06:53:13;;;;;;;25.77;13.77;;;18.20;60.80;;;;;;5071270;28;20032;-54
2022/04/24 06:55:41;;;;;;;18.90;13.52;;;18.80;58.10;;;;;;5071117;28;20434;-55
2022/04/24 06:58:09;;;;;;;21.42;13.52;;;18.90;56.80;;;;;;5071125;28;20035;-47
2022/04/24 07:00:36;;;;;;;23.35;12.75;;;19.00;56.00;;;;;;5071146;28;20483;-53
2022/04/24 07:03:13;;;;;;;18.40;12.82;;;19.20;54.40;;;;;;5071185;28;20502;-53
2022/04/24 07:05:39;;;;;;;23.10;13.82;;;19.60;53.30;;;;;;5071286;28;20028;-51
2022/04/24 07:08:06;;;;;;;20.60;13.52;;;19.50;52.80;;;;;;5071237;28;20032;-50
2022/04/24 07:10:32;;;;;;;23.50;14.15;;;19.40;54.00;;;;;;5071142;28;20106;-48
2022/04/24 07:12:58;;;;;;;21.70;12.85;;;19.10;53.30;;;;;;5071028;28;20487;-50
2022/04/24 07:15:24;;;;;;;20.65;13.30;;;19.40;53.90;;;;;;5070834;28;20028;-56
2022/04/24 07:17:51;;;;;;;22.23;13.68;;;19.40;52.80;;;;;;5070943;28;20052;-53
2022/04/24 07:20:18;;;;;;;23.77;14.10;;;19.00;53.80;;;;;;5070884;28;20024;-47
2022/04/24 07:23:00;;;;;;;22.30;13.95;;;18.90;54.30;;;;;;5071105;28;20028;-45
2022/04/24 07:25:27;;;;;;;19.40;13.10;;;19.20;54.40;;;;;;5070991;28;20032;-45
2022/04/24 07:27:54;;;;;;;20.95;13.48;;;19.80;53.60;;;;;;5071101;28;20111;-49
2022/04/24 07:30:21;;;;;;;23.25;13.77;;;19.70;51.70;;;;;;5075191;28;20104;-48
2022/04/24 07:32:47;;;;;;;24.23;14.20;;;19.80;52.60;;;;;;5074977;28;20028;-50
2022/04/24 07:35:21;;;;;;;23.48;14.02;;;20.30;51.00;;;;;;5075197;28;20020;-45
2022/04/24 07:37:47;;;;;;;18.92;12.00;;;20.60;51.00;;;;;;5074907;28;20703;-45
2022/04/24 07:40:15;;;;;;;22.70;13.48;;;21.30;51.00;;;;;;5074942;28;20462;-49
2022/04/24 07:42:48;;;;;;;18.73;13.10;;;22.30;47.00;;;;;;5074945;28;20033;-58
2022/04/24 07:45:25;;;;;;;22.70;12.40;;;21.90;47.50;;;;;;5074753;28;20028;-45
2022/04/24 07:47:53;;;;;;;18.98;13.23;;;22.30;45.90;;;;;;5071662;28;20024;-43
2022/04/24 07:50:21;;;;;;;18.45;12.13;;;21.70;47.00;;;;;;5074529;28;20107;-43
2022/04/24 07:52:48;;;;;;;17.05;12.18;;;23.20;49.30;;;;;;5074287;28;20035;-53
2022/04/24 07:55:17;;;;;;;19.85;12.20;;;23.40;41.60;;;;;;5073003;28;20025;-50
2022/04/24 07:57:44;;;;;;;16.17;11.82;;;22.90;43.00;;;;;;5074333;28;20449;-46
2022/04/24 08:00:11;;;;;;;17.02;10.60;;;22.90;44.50;;;;;;5074088;28;20048;-45
2022/04/24 08:02:46;;;;;;;18.42;11.35;;;23.90;45.00;;;;;;5073795;28;20111;-47
2022/04/24 08:05:12;;;;;;;14.93;10.27;;;24.80;40.30;;;;;;5073769;28;20145;-51
2022/04/24 08:07:38;;;;;;;16.45;10.90;;;25.00;38.40;;;;;;5062932;28;20407;-58
2022/04/24 08:10:04;;;;;;;14.95;11.60;;;25.30;39.80;;;;;;5074194;28;20032;-51
2022/04/24 08:12:30;;;;;;;14.73;10.75;;;24.20;37.60;;;;;;5072393;28;20040;-49
2022/04/24 08:14:56;;;;;;;17.80;9.95;;;25.10;38.50;;;;;;5073923;28;20532;-44
2022/04/24 08:17:21;;;;;;;16.83;10.15;;;25.60;39.00;;;;;;5073125;28;20048;-50
2022/04/24 08:19:47;;;;;;;16.13;10.30;;;25.80;36.90;;;;;;5074125;28;20436;-54
2022/04/24 08:22:12;;;;;;;13.60;9.13;;;25.50;37.70;;;;;;5073033;28;20032;-50
2022/04/24 08:24:38;;;;;;;15.07;9.95;;;25.70;39.90;;;;;;5074055;28;20048;-52
2022/04/24 08:27:03;;;;;;;16.58;9.70;;;25.00;37.90;;;;;;5072869;28;20032;-45
2022/04/24 08:29:29;;;;;;;12.88;8.52;;;25.10;37.30;;;;;;5073955;28;20021;-55
2022/04/24 08:31:55;;;;;;;14.82;9.73;;;24.60;40.70;;;;;;5071461;28;20033;-53
2022/04/24 08:34:20;;;;;;;17.77;10.65;;;25.20;38.30;;;;;;5061220;28;20395;-55
2022/04/24 08:36:46;;;;;;;19.20;9.60;;;25.10;35.90;;;;;;5061275;28;20085;-47
2022/04/24 08:39:11;;;;;;;19.60;10.73;;;24.90;40.00;;;;;;5073072;28;20025;-49
2022/04/24 08:41:40;;;;;;;14.50;9.90;;;25.40;36.80;;;;;;5073966;28;20032;-55
2022/04/24 08:44:06;;;;;;;;;;;24.80;36.40;;;;;;5074241;28;20029;-53
2022/04/24 08:46:32;;;;;;;13.68;9.63;;;25.20;38.70;;;;;;5073351;28;19904;-52
2022/04/24 08:48:59;;;;;;;16.30;9.43;;;26.40;36.50;;;;;;5073594;28;20036;-41
2022/04/24 08:51:25;;;;;;;20.48;10.20;;;26.60;34.50;;;;;;5073460;28;20040;-59
2022/04/24 08:53:53;;;;;;;13.73;9.60;;;25.90;35.90;;;;;;5073578;28;20033;-48
2022/04/24 08:56:19;;;;;;;14.90;9.57;;;25.70;33.80;;;;;;5073390;28;20029;-53
2022/04/24 08:58:44;;;;;;;13.48;9.75;;;26.10;35.70;;;;;;5073476;28;20038;-59
2022/04/24 09:01:10;;;;;;;12.18;8.68;;;25.90;34.30;;;;;;5073291;28;20434;-50
2022/04/24 09:03:36;;;;;;;15.85;8.80;;;26.30;36.90;;;;;;5071389;28;20020;-49
2022/04/24 09:06:02;;;;;;;14.75;9.00;;;27.50;34.40;;;;;;5072366;28;20032;-44
2022/04/24 09:08:27;;;;;;;14.82;8.60;;;27.70;32.80;;;;;;5070155;28;20513;-47
2022/04/24 09:10:56;;;;;;;12.90;8.27;;;27.80;31.80;;;;;;5072465;28;20036;-45
2022/04/24 09:16:36;;;;;;;13.77;8.13;;;26.90;33.80;;;;;;5070188;28;20112;-44
2022/04/24 09:19:23;;;;;;;16.38;9.02;;;28.40;31.70;;;;;;5070933;28;20028;-55
2022/04/24 09:21:50;;;;;;;11.27;8.48;;;28.10;31.90;;;;;;5072991;28;20021;-46
2022/04/24 09:24:16;;;;;;;13.60;8.57;;;27.70;31.50;;;;;;5071951;28;20055;-46
2022/04/24 09:26:56;;;;;;;12.20;8.23;;;27.10;31.30;;;;;;5071149;28;20045;-54
2022/04/24 09:29:22;;;;;;;13.52;8.10;;;26.80;31.30;;;;;;5071624;28;20033;-48
2022/04/24 09:31:49;;;;;;;13.05;8.48;;;26.90;32.20;;;;;;5072206;28;20124;-56
2022/04/24 09:34:20;;;;;;;10.52;7.25;;;27.30;31.10;;;;;;5072054;28;20016;-48
2022/04/24 09:36:47;;;;;;;11.23;7.75;;;27.30;31.40;;;;;;5071733;28;20016;-52
2022/04/24 09:39:13;;;;;;;14.90;7.78;;;27.30;30.90;;;;;;5070194;28;20044;-54
2022/04/24 09:41:39;;;;;;;16.70;7.90;;;27.00;31.90;;;;;;5072660;28;20032;-45
2022/04/24 09:44:12;;;;;;;14.68;7.03;;;26.50;32.40;;;;;;5072745;28;20024;-50
2022/04/24 09:46:38;;;;;;;15.30;7.97;;;26.80;32.70;;;;;;5072058;28;20036;-48
2022/04/24 09:49:09;;;;;;;13.55;7.38;;;26.40;31.10;;;;;;5072537;28;20024;-46
2022/04/24 09:51:40;;;;;;;15.00;7.57;;;26.20;33.10;;;;;;5071331;28;20033;-42
2022/04/24 09:54:06;;;;;;;11.63;7.93;;;26.00;34.10;;;;;;5072368;28;20282;-46
2022/04/24 09:56:33;;;;;;;12.30;7.82;;;26.40;31.70;;;;;;5071131;28;20036;-51
2022/04/24 09:58:59;;;;;;;14.27;7.10;;;25.00;33.50;;;;;;5072015;28;20059;-52
2022/04/24 10:01:29;;;;;;;12.85;6.85;;;25.60;37.80;;;;;;5070915;28;20056;-48
2022/04/24 10:03:55;;;;;;;13.07;7.20;;;26.90;33.10;;;;;;5072006;28;20036;-50
2022/04/24 10:06:22;;;;;;;13.32;7.18;;;27.50;30.80;;;;;;5070259;28;20028;-55
2022/04/24 10:08:50;;;;;;;14.00;7.95;;;28.10;30.20;;;;;;5071274;28;20093;-49
2022/04/24 10:11:16;;;;;;;12.65;7.18;;;27.70;30.10;;;;;;5071773;28;20086;-47
2022/04/24 10:13:45;;;;;;;12.63;6.93;;;27.70;29.50;;;;;;5083840;28;20040;-48
2022/04/24 10:16:19;;;;;;;;;;;27.00;32.90;;;;;;5071332;28;20689;-46
2022/04/24 10:18:57;;;;;;;9.95;6.22;;;28.40;31.00;;;;;;5071071;28;19986;-46
2022/04/24 10:21:54;;;;;;;9.65;6.50;;;28.20;30.00;;;;;;5070089;28;20075;-53
2022/04/24 10:24:20;;;;;;;11.45;6.82;;;27.10;29.80;;;;;;5070557;28;20056;-44
2022/04/24 10:26:57;;;;;;;11.32;6.45;;;27.70;31.30;;;;;;5070262;28;20113;-53
2022/04/24 10:29:24;;;;;;;10.95;6.88;;;28.10;29.10;;;;;;5072393;28;20050;-53
2022/04/24 10:31:50;;;;;;;10.68;6.38;;;28.00;29.20;;;;;;5073215;28;20098;-55
2022/04/24 10:34:16;;;;;;;10.95;6.70;;;27.90;30.90;;;;;;5071388;28;20078;-46
2022/04/24 10:36:58;;;;;;;9.68;6.63;;;28.40;29.30;;;;;;5071000;28;20028;-45
2022/04/24 10:39:27;;;;;;;11.25;6.28;;;27.60;29.30;;;;;;5071278;28;20047;-43
2022/04/24 10:42:12;;;;;;;10.70;6.90;;;27.30;28.70;;;;;;5069265;28;20020;-47
2022/04/24 10:44:50;;;;;;;9.98;6.10;;;26.10;29.90;;;;;;5070670;28;20025;-47
2022/04/24 10:47:16;;;;;;;10.63;5.55;;;26.60;31.40;;;;;;5069468;28;20035;-46
2022/04/24 10:49:41;;;;;;;9.73;5.90;;;27.20;28.80;;;;;;5069836;28;20028;-43
2022/04/24 10:52:07;;;;;;;11.43;6.30;;;27.60;30.10;;;;;;5067982;28;20816;-49
2022/04/24 10:54:38;;;;;;;9.35;5.90;;;28.20;30.90;;;;;;5067211;28;20024;-42
2022/04/24 10:57:23;;;;;;;10.98;6.25;;;28.00;29.90;;;;;;5055125;28;20035;-48
2022/04/24 10:59:52;;;;;;;8.90;6.28;;;27.90;28.10;;;;;;5068986;28;20051;-55
2022/04/24 11:02:23;;;;;;;8.98;6.28;;;27.30;28.20;;;;;;5070407;28;20483;-45
2022/04/24 11:05:20;;;;;;;9.52;6.10;;;27.20;28.40;;;;;;5066989;28;20017;-44
2022/04/24 11:07:46;;;;;;;9.88;6.30;;;27.40;29.90;;;;;;5071117;28;20036;-48
2022/04/24 11:10:13;;;;;;;12.18;6.47;;;27.10;28.80;;;;;;5077031;28;20028;-47
2022/04/24 11:12:40;;;;;;;8.45;5.43;;;26.90;29.40;;;;;;5070212;28;20028;-47
2022/04/24 11:15:14;;;;;;;10.73;6.40;;;27.60;31.50;;;;;;5064125;28;20017;-47
2022/04/24 11:17:40;;;;;;;10.43;6.75;;;27.00;28.90;;;;;;5066320;28;20040;-54
2022/04/24 11:20:10;;;;;;;9.40;5.70;;;26.60;29.70;;;;;;5067293;28;20491;-44
2022/04/24 11:22:53;;;;;;;10.02;5.78;;;28.00;30.30;;;;;;5069629;28;20087;-56
2022/04/24 11:25:22;;;;;;;8.15;5.80;;;27.20;29.40;;;;;;5069589;28;20032;-46
2022/04/24 11:27:53;;;;;;;9.73;5.82;;;26.60;27.50;;;;;;5069875;28;20108;-43
2022/04/24 11:30:31;;;;;;;10.63;5.60;;;25.80;29.40;;;;;;5069256;28;20039;-53
2022/04/24 11:33:05;;;;;;;9.52;6.32;;;25.70;29.50;;;;;;5069497;28;20040;-50
2022/04/24 11:35:33;;;;;;;9.30;5.80;;;25.20;30.40;;;;;;5068019;28;20535;-44
2022/04/24 11:37:59;;;;;;;9.77;6.30;;;24.80;30.50;;;;;;5069773;28;20036;-42
2022/04/24 11:40:25;;;;;;;8.55;5.78;;;24.60;30.30;;;;;;5070243;28;20020;-51
2022/04/24 11:43:01;;;;;;;10.32;6.10;;;24.10;30.00;;;;;;5069961;28;20052;-50
2022/04/24 11:51:02;;;;;;;7.93;5.75;;;22.10;35.20;;;;;;5065187;28;20085;-50
2022/04/24 11:53:28;;;;;;;8.68;6.13;;;22.30;33.50;;;;;;5069362;28;20031;-44
2022/04/24 11:56:01;;;;;;;9.35;5.82;;;21.50;35.00;;;;;;5069866;28;20039;-47
2022/04/24 11:58:32;;;;;;;10.23;6.03;;;22.30;36.20;;;;;;5068850;28;20028;-48
2022/04/24 12:00:59;;;;;;;12.15;7.18;;;22.40;36.10;;;;;;5070415;28;20020;-47
2022/04/24 12:03:25;;;;;;;8.88;6.38;;;22.90;33.90;;;;;;5069853;28;20025;-55
2022/04/24 12:05:59;;;;;;;8.88;6.13;;;23.30;36.40;;;;;;5069526;28;20464;-53
2022/04/24 12:08:26;;;;;;;8.20;6.40;;;24.00;35.70;;;;;;5068914;28;20127;-47
2022/04/24 12:10:52;;;;;;;12.90;6.35;;;23.10;32.90;;;;;;5050279;28;20037;-47
2022/04/24 12:13:22;;;;;;;9.25;6.05;;;23.50;31.80;;;;;;5050469;28;20025;-46
2022/04/24 12:15:52;;;;;;;9.25;5.90;;;23.40;33.20;;;;;;5062008;28;20016;-50
2022/04/24 12:18:23;;;;;;;8.57;5.80;;;23.30;32.00;;;;;;5073915;28;20495;-49
2022/04/24 12:20:50;;;;;;;11.48;5.85;;;23.70;32.10;;;;;;5074147;28;20110;-51
2022/04/24 12:23:17;;;;;;;7.15;5.70;;;23.90;32.30;;;;;;5073662;28;20563;-48
2022/04/24 12:26:02;;;;;;;10.50;6.18;;;23.70;32.50;;;;;;5073999;28;20031;-51
2022/04/24 12:28:35;;;;;;;7.97;5.47;;;23.60;30.50;;;;;;5074220;28;20024;-47
2022/04/24 12:31:03;;;;;;;8.93;5.30;;;23.30;30.20;;;;;;5071931;28;20090;-48
2022/04/24 12:33:31;;;;;;;7.40;5.75;;;23.60;32.10;;;;;;5053676;28;20033;-52
2022/04/24 12:36:08;;;;;;;17.70;6.88;;;23.20;32.30;;;;;;5053735;28;20477;-50
2022/04/24 12:38:33;;;;;;;9.73;5.80;;;23.60;34.30;;;;;;5065627;28;20021;-54
2022/04/24 12:40:59;;;;;;;8.48;5.43;;;23.00;29.90;;;;;;5071701;28;20081;-52
2022/04/24 12:43:30;;;;;;;9.30;5.78;;;23.20;31.50;;;;;;5072162;28;20016;-51